createdAt,value
2019-04-03T00:00:16.831Z,19.8
2019-04-03T00:01:10.219Z,19.8
2019-04-03T00:01:57.345Z,19.7
2019-04-03T00:02:46.046Z,19.7
2019-04-03T00:03:40.303Z,19.6
2019-04-03T00:04:26.384Z,19.6
2019-04-03T00:05:16.923Z,19.6
2019-04-03T00:06:10.217Z,19.6
2019-04-03T00:06:56.728Z,19.6
2019-04-03T00:07:47.869Z,19.6
2019-04-03T00:08:51.689Z,19.5
2019-04-03T00:09:26.591Z,19.5
2019-04-03T00:10:17.240Z,19.4
2019-04-03T00:11:12.287Z,19.4
2019-04-03T00:11:57.483Z,19.4
2019-04-03T00:12:51.898Z,19.4
2019-04-03T00:13:41.217Z,19.3
2019-04-03T00:15:20.592Z,19.3
2019-04-03T00:16:08.188Z,19.3
2019-04-03T00:16:58.849Z,19.3
2019-04-03T00:17:51.413Z,19.3
2019-04-03T00:18:38.033Z,19.2
2019-04-03T00:19:28.177Z,19.2
2019-04-03T00:20:20.145Z,19.3
2019-04-03T00:21:08.533Z,19.3
2019-04-03T00:22:00.580Z,19.3
2019-04-03T00:22:55.973Z,19.4
2019-04-03T00:23:38.742Z,19.4
2019-04-03T00:24:31.957Z,19.4
2019-04-03T00:25:18.354Z,19.4
2019-04-03T00:26:08.741Z,19.6
2019-04-03T00:27:02.242Z,19.6
2019-04-03T00:27:48.666Z,19.7
2019-04-03T00:28:39.167Z,19.8
2019-04-03T00:29:32.036Z,19.8
2019-04-03T00:30:20.481Z,19.9
2019-04-03T00:31:10.087Z,19.9
2019-04-03T00:32:02.736Z,19.8
2019-04-03T00:32:49.540Z,19.7
2019-04-03T00:33:38.844Z,19.7
2019-04-03T00:34:32.089Z,19.8
2019-04-03T00:35:19.439Z,19.8
2019-04-03T00:36:09.894Z,19.9
2019-04-03T00:37:02.992Z,19.9
2019-04-03T00:37:49.826Z,19.9
2019-04-03T00:38:39.698Z,19.9
2019-04-03T00:39:31.944Z,19.9
2019-04-03T00:40:19.933Z,19.9
2019-04-03T00:41:10.054Z,19.9
2019-04-03T00:42:02.674Z,19.9
2019-04-03T00:42:50.429Z,19.9
2019-04-03T00:43:40.677Z,19.9
2019-04-03T00:44:33.113Z,19.9
2019-04-03T00:45:20.512Z,19.9
2019-04-03T00:46:10.043Z,19.9
2019-04-03T00:47:03.936Z,19.8
2019-04-03T00:47:49.872Z,19.8
2019-04-03T00:48:41.027Z,19.8
2019-04-03T00:49:34.058Z,19.8
2019-04-03T00:50:20.407Z,19.8
2019-04-03T00:51:11.775Z,19.8
2019-04-03T00:52:03.220Z,19.8
2019-04-03T00:52:51.490Z,19.7
2019-04-03T00:53:40.627Z,19.7
2019-04-03T00:54:38.053Z,19.6
2019-04-03T00:55:21.864Z,19.6
2019-04-03T00:56:11.618Z,19.6
2019-04-03T00:57:04.385Z,19.6
2019-04-03T00:57:52.443Z,19.6
2019-04-03T00:58:41.485Z,19.5
2019-04-03T00:59:34.574Z,19.4
2019-04-03T01:00:20.630Z,19.4
2019-04-03T01:01:11.875Z,19.4
2019-04-03T01:02:03.854Z,19.4
2019-04-03T01:02:51.323Z,19.4
2019-04-03T01:03:41.932Z,19.4
2019-04-03T01:04:35.218Z,19.4
2019-04-03T01:05:22.756Z,19.3
2019-04-03T01:06:12.027Z,19.3
2019-04-03T01:07:05.299Z,19.3
2019-04-03T01:07:52.664Z,19.3
2019-04-03T01:08:41.864Z,19.2
2019-04-03T01:09:34.566Z,19.2
2019-04-03T01:10:21.879Z,19.1
2019-04-03T01:11:12.289Z,19.1
2019-04-03T01:12:04.867Z,19.1
2019-04-03T01:12:52.712Z,19.1
2019-04-03T01:13:42.930Z,19.1
2019-04-03T01:14:36.195Z,19.1
2019-04-03T01:15:22.904Z,19
2019-04-03T01:16:12.989Z,19
2019-04-03T01:17:06.826Z,19.1
2019-04-03T01:17:52.675Z,19.1
2019-04-03T01:18:45.166Z,19.2
2019-04-03T01:19:36.015Z,19.3
2019-04-03T01:20:21.926Z,19.3
2019-04-03T01:21:15.327Z,19.4
2019-04-03T01:22:02.319Z,19.4
2019-04-03T01:22:52.717Z,19.4
2019-04-03T01:23:46.209Z,19.5
2019-04-03T01:24:33.391Z,19.6
2019-04-03T01:25:22.704Z,19.6
2019-04-03T01:26:17.206Z,19.8
2019-04-03T01:27:03.875Z,19.8
2019-04-03T01:27:53.806Z,19.9
2019-04-03T01:28:47.281Z,19.8
2019-04-03T01:29:32.798Z,19.6
2019-04-03T01:30:24.688Z,19.6
2019-04-03T01:31:16.608Z,19.6
2019-04-03T01:32:03.654Z,19.6
2019-04-03T01:32:56.778Z,19.7
2019-04-03T01:33:47.708Z,19.7
2019-04-03T01:34:33.983Z,19.7
2019-04-03T01:35:27.079Z,19.7
2019-04-03T01:36:14.263Z,19.7
2019-04-03T01:37:03.958Z,19.7
2019-04-03T01:37:56.460Z,19.7
2019-04-03T01:38:45.253Z,19.7
2019-04-03T01:39:33.378Z,19.6
2019-04-03T01:40:27.673Z,19.6
2019-04-03T01:41:14.806Z,19.6
2019-04-03T01:42:04.506Z,19.6
2019-04-03T01:42:57.671Z,19.6
2019-04-03T01:43:43.780Z,19.6
2019-04-03T01:44:36.204Z,19.6
2019-04-03T01:45:28.033Z,19.5
2019-04-03T01:46:15.150Z,19.4
2019-04-03T01:47:07.642Z,19.4
2019-04-03T01:47:53.900Z,19.4
2019-04-03T01:48:45.009Z,19.4
2019-04-03T01:49:38.264Z,19.4
2019-04-03T01:50:24.618Z,19.4
2019-04-03T01:51:14.042Z,19.4
2019-04-03T01:52:08.872Z,19.4
2019-04-03T01:52:54.442Z,19.4
2019-04-03T01:53:45.153Z,19.4
2019-04-03T01:54:39.018Z,19.3
2019-04-03T01:55:24.977Z,19.3
2019-04-03T01:56:15.779Z,19.3
2019-04-03T01:57:09.327Z,19.3
2019-04-03T01:57:55.471Z,19.3
2019-04-03T01:58:46.042Z,19.2
2019-04-03T01:59:39.152Z,19.2
2019-04-03T02:00:25.093Z,19.1
2019-04-03T02:01:17.944Z,19.1
2019-04-03T02:02:06.666Z,19.1
2019-04-03T02:02:56.217Z,19.1
2019-04-03T02:03:48.559Z,19.1
2019-04-03T02:04:35.767Z,19
2019-04-03T02:05:25.597Z,19.1
2019-04-03T02:06:19.501Z,19
2019-04-03T02:07:05.074Z,18.9
2019-04-03T02:07:56.280Z,18.9
2019-04-03T02:08:49.316Z,18.9
2019-04-03T02:09:35.521Z,18.9
2019-04-03T02:10:28.513Z,18.9
2019-04-03T02:11:16.700Z,18.9
2019-04-03T02:12:07.474Z,18.9
2019-04-03T02:12:59.949Z,18.9
2019-04-03T02:13:46.427Z,19
2019-04-03T02:14:36.569Z,19.1
2019-04-03T02:15:30.058Z,19.1
2019-04-03T02:16:16.644Z,19.1
2019-04-03T02:17:07.346Z,19.2
2019-04-03T02:18:00.193Z,19.3
2019-04-03T02:18:47.936Z,19.3
2019-04-03T02:19:37.501Z,19.4
2019-04-03T02:20:31.360Z,19.5
2019-04-03T02:21:17.433Z,19.6
2019-04-03T02:22:07.968Z,19.6
2019-04-03T02:23:00.597Z,19.6
2019-04-03T02:23:47.975Z,19.6
2019-04-03T02:24:41.032Z,19.6
2019-04-03T02:25:27.386Z,19.6
2019-04-03T02:26:17.452Z,19.6
2019-04-03T02:27:10.178Z,19.6
2019-04-03T02:27:57.178Z,19.8
2019-04-03T02:28:46.788Z,19.8
2019-04-03T02:29:37.910Z,19.9
2019-04-03T02:30:28.391Z,19.9
2019-04-03T02:31:24.334Z,20.1
2019-04-03T02:32:08.340Z,19.9
2019-04-03T02:33:04.421Z,19.8
2019-04-03T02:33:48.478Z,19.6
2019-04-03T02:34:44.194Z,19.6
2019-04-03T02:35:28.100Z,19.6
2019-04-03T02:36:23.941Z,19.6
2019-04-03T02:37:08.778Z,19.6
2019-04-03T02:38:00.410Z,19.7
2019-04-03T02:38:48.823Z,19.7
2019-04-03T02:39:38.475Z,19.7
2019-04-03T02:40:34.350Z,19.7
2019-04-03T02:41:18.252Z,19.7
2019-04-03T02:42:14.884Z,19.7
2019-04-03T02:42:59.493Z,19.7
2019-04-03T02:43:55.642Z,19.7
2019-04-03T02:44:39.608Z,19.7
2019-04-03T02:45:34.497Z,19.6
2019-04-03T02:46:20.290Z,19.6
2019-04-03T02:47:11.822Z,19.6
2019-04-03T02:48:05.496Z,19.6
2019-04-03T02:48:48.899Z,19.6
2019-04-03T02:49:44.632Z,19.6
2019-04-03T02:50:30.998Z,19.6
2019-04-03T02:51:23.904Z,19.6
2019-04-03T02:52:10.377Z,19.5
2019-04-03T02:53:06.830Z,19.5
2019-04-03T02:53:51.295Z,19.4
2019-04-03T02:54:45.971Z,19.4
2019-04-03T02:55:29.967Z,19.4
2019-04-03T02:56:24.280Z,19.4
2019-04-03T02:57:09.660Z,19.3
2019-04-03T02:58:21.040Z,19.3
2019-04-03T02:58:56.093Z,19.3
2019-04-03T02:59:40.456Z,19.3
2019-04-03T03:00:37.318Z,19.2
2019-04-03T03:01:21.404Z,19.2
2019-04-03T03:02:16.048Z,19.2
2019-04-03T03:03:00.542Z,19.1
2019-04-03T03:03:55.663Z,19.1
2019-04-03T03:07:21.322Z,19
2019-04-03T03:08:16.507Z,18.9
2019-04-03T03:09:01.632Z,18.9
2019-04-03T03:09:58.038Z,18.9
2019-04-03T03:10:41.156Z,18.9
2019-04-03T03:11:36.193Z,18.9
2019-04-03T03:12:20.793Z,18.8
2019-04-03T03:13:12.965Z,18.8
2019-04-03T03:14:02.391Z,18.8
2019-04-03T03:14:51.585Z,18.8
2019-04-03T03:15:48.520Z,18.8
2019-04-03T03:16:30.783Z,18.8
2019-04-03T03:17:26.389Z,18.9
2019-04-03T03:18:11.928Z,18.9
2019-04-03T03:19:06.768Z,18.9
2019-04-03T03:19:52.204Z,18.9
2019-04-03T03:20:47.787Z,19
2019-04-03T03:21:31.386Z,19.1
2019-04-03T03:22:28.311Z,19.1
2019-04-03T03:23:11.087Z,19.1
2019-04-03T03:24:07.746Z,19.3
2019-04-03T03:24:52.988Z,19.3
2019-04-03T03:25:43.854Z,19.4
2019-04-03T03:26:31.974Z,19.4
2019-04-03T03:27:22.358Z,19.6
2019-04-03T03:28:17.675Z,19.6
2019-04-03T03:29:30.883Z,19.4
2019-04-03T03:29:53.227Z,19.3
2019-04-03T03:32:30.570Z,19.3
2019-04-03T03:33:44.330Z,19.3
2019-04-03T03:34:13.363Z,19.3
2019-04-03T03:36:03.862Z,19.3
2019-04-03T03:36:41.525Z,19.4
2019-04-03T03:37:20.426Z,19.4
2019-04-03T03:37:56.337Z,19.3
2019-04-03T03:38:52.335Z,19.3
2019-04-03T03:39:37.485Z,19.3
2019-04-03T03:40:27.146Z,19.3
2019-04-03T03:41:23.660Z,19.3
2019-04-03T03:42:09.975Z,19.3
2019-04-03T03:42:58.183Z,19.3
2019-04-03T03:43:50.770Z,19.3
2019-04-03T03:44:46.000Z,19.3
2019-04-03T03:45:32.670Z,19.3
2019-04-03T03:46:18.636Z,19.3
2019-04-03T03:47:12.428Z,19.3
2019-04-03T03:47:57.938Z,19.1
2019-04-03T03:48:56.153Z,19
2019-04-03T03:49:38.083Z,18.8
2019-04-03T03:50:35.855Z,18.8
2019-04-03T03:54:37.863Z,18.6
2019-04-03T03:55:33.953Z,18.6
2019-04-03T03:56:18.871Z,18.6
2019-04-03T03:57:14.745Z,18.6
2019-04-03T03:57:57.919Z,18.6
2019-04-03T03:58:53.616Z,18.6
2019-04-03T03:59:38.426Z,18.6
2019-04-03T04:00:33.924Z,18.5
2019-04-03T04:01:18.753Z,18.5
2019-04-03T04:02:15.556Z,18.4
2019-04-03T04:02:59.292Z,18.4
2019-04-03T04:03:53.591Z,18.4
2019-04-03T04:04:39.998Z,18.4
2019-04-03T04:05:33.993Z,18.4
2019-04-03T04:06:19.286Z,18.3
2019-04-03T04:07:14.779Z,18.3
2019-04-03T04:07:59.463Z,18.3
2019-04-03T04:08:55.172Z,18.3
2019-04-03T04:09:40.466Z,18.3
2019-04-03T04:10:41.207Z,18.3
2019-04-03T04:11:20.045Z,18.3
2019-04-03T04:12:15.273Z,18.2
2019-04-03T04:12:59.555Z,18.2
2019-04-03T04:13:56.034Z,18.2
2019-04-03T04:14:41.198Z,18.1
2019-04-03T04:15:34.963Z,18.1
2019-04-03T04:16:19.630Z,18.1
2019-04-03T04:17:24.040Z,18.1
2019-04-03T04:18:02.363Z,18.1
2019-04-03T04:18:50.609Z,18.1
2019-04-03T04:19:43.170Z,18.1
2019-04-03T04:20:30.132Z,18.1
2019-04-03T04:21:22.247Z,18.1
2019-04-03T04:22:15.423Z,18.1
2019-04-03T04:23:03.512Z,18.1
2019-04-03T04:23:50.144Z,18.1
2019-04-03T04:24:39.855Z,18
2019-04-03T04:25:34.417Z,18
2019-04-03T04:26:18.634Z,18
2019-04-03T04:27:12.784Z,18
2019-04-03T04:28:01.237Z,17.9
2019-04-03T04:28:51.150Z,17.9
2019-04-03T04:29:42.770Z,17.9
2019-04-03T04:30:30.194Z,17.9
2019-04-03T04:31:22.249Z,17.9
2019-04-03T04:32:11.126Z,17.9
2019-04-03T04:33:00.611Z,17.9
2019-04-03T04:33:53.957Z,17.9
2019-04-03T04:34:41.181Z,17.9
2019-04-03T04:35:32.423Z,17.8
2019-04-03T04:36:24.191Z,17.8
2019-04-03T04:37:13.039Z,17.8
2019-04-03T04:38:05.022Z,17.8
2019-04-03T04:38:49.763Z,17.8
2019-04-03T04:39:40.972Z,17.8
2019-04-03T04:40:34.203Z,17.9
2019-04-03T04:41:20.888Z,17.9
2019-04-03T04:42:15.543Z,18
2019-04-03T04:43:04.679Z,18.1
2019-04-03T04:43:52.478Z,18.1
2019-04-03T04:44:43.742Z,18.1
2019-04-03T04:45:34.958Z,18.1
2019-04-03T04:46:24.206Z,18.3
2019-04-03T04:47:11.513Z,18.3
2019-04-03T04:48:01.470Z,18.4
2019-04-03T04:48:54.085Z,18.4
2019-04-03T04:49:41.256Z,18.5
2019-04-03T04:50:34.617Z,18.6
2019-04-03T04:51:21.676Z,18.4
2019-04-03T04:52:12.068Z,18.4
2019-04-03T04:53:05.155Z,18.4
2019-04-03T04:53:51.190Z,18.4
2019-04-03T04:54:43.468Z,18.4
2019-04-03T04:55:38.963Z,18.4
2019-04-03T04:56:21.230Z,18.4
2019-04-03T04:57:14.189Z,18.5
2019-04-03T04:58:00.439Z,18.5
2019-04-03T04:58:54.072Z,18.5
2019-04-03T04:59:49.059Z,18.5
2019-04-03T05:00:34.426Z,18.6
2019-04-03T05:01:25.388Z,18.6
2019-04-03T05:02:13.061Z,18.6
2019-04-03T05:03:05.901Z,18.6
2019-04-03T05:03:56.530Z,18.6
2019-04-03T05:04:41.316Z,18.6
2019-04-03T05:05:38.841Z,18.6
2019-04-03T05:06:23.903Z,18.6
2019-04-03T05:07:16.580Z,18.6
2019-04-03T05:08:05.904Z,18.6
2019-04-03T05:08:52.959Z,18.6
2019-04-03T05:09:45.772Z,18.6
2019-04-03T05:10:32.486Z,18.5
2019-04-03T05:11:22.119Z,18.5
2019-04-03T05:12:17.462Z,18.5
2019-04-03T05:13:03.104Z,18.4
2019-04-03T05:13:56.081Z,18.4
2019-04-03T05:14:43.440Z,18.4
2019-04-03T05:15:34.704Z,18.4
2019-04-03T05:16:30.294Z,18.3
2019-04-03T05:17:13.057Z,18.3
2019-04-03T05:18:06.536Z,18.3
2019-04-03T05:18:52.878Z,18.3
2019-04-03T05:19:44.484Z,18.2
2019-04-03T05:20:35.122Z,18.2
2019-04-03T05:21:27.551Z,18.1
2019-04-03T05:22:14.234Z,18.1
2019-04-03T05:23:06.083Z,18.1
2019-04-03T05:23:58.099Z,18.1
2019-04-03T05:24:44.607Z,18
2019-04-03T05:25:37.378Z,18
2019-04-03T05:26:27.910Z,17.9
2019-04-03T05:27:17.857Z,17.9
2019-04-03T05:28:06.325Z,17.9
2019-04-03T05:29:09.653Z,17.9
2019-04-03T05:29:44.523Z,17.8
2019-04-03T05:30:37.912Z,17.8
2019-04-03T05:31:25.444Z,17.8
2019-04-03T05:32:19.298Z,17.8
2019-04-03T05:33:05.682Z,17.8
2019-04-03T05:33:53.398Z,17.8
2019-04-03T05:34:48.498Z,17.8
2019-04-03T05:35:38.142Z,17.8
2019-04-03T05:36:28.572Z,17.9
2019-04-03T05:37:24.115Z,17.9
2019-04-03T05:38:03.733Z,18
2019-04-03T05:39:02.667Z,18
2019-04-03T05:39:44.827Z,18.1
2019-04-03T05:40:35.955Z,18.1
2019-04-03T05:41:29.602Z,18
2019-04-03T05:42:15.566Z,18
2019-04-03T05:43:08.710Z,18
2019-04-03T05:43:55.164Z,18.1
2019-04-03T05:44:45.007Z,18.1
2019-04-03T05:45:42.286Z,18.1
2019-04-03T05:46:29.064Z,18.1
2019-04-03T05:47:18.378Z,18.1
2019-04-03T05:48:17.575Z,18.1
2019-04-03T05:48:58.605Z,18.1
2019-04-03T05:49:56.757Z,18.1
2019-04-03T05:50:41.309Z,18.1
2019-04-03T05:51:24.915Z,18.1
2019-04-03T05:52:15.040Z,18.1
2019-04-03T05:53:09.224Z,18.1
2019-04-03T05:53:58.550Z,18.1
2019-04-03T05:54:52.964Z,18.1
2019-04-03T05:55:36.417Z,18.1
2019-04-03T05:56:25.495Z,18.1
2019-04-03T05:57:18.851Z,18.1
2019-04-03T05:59:07.641Z,18.1
2019-04-03T05:59:18.783Z,18.1
2019-04-03T06:00:16.202Z,18.1
2019-04-03T06:01:19.039Z,18.1
2019-04-03T06:01:56.159Z,18
2019-04-03T06:02:39.480Z,18
2019-04-03T06:05:27.113Z,17.9
2019-04-03T06:06:10.823Z,17.9
2019-04-03T06:07:00.055Z,17.9
2019-04-03T06:07:54.263Z,17.9
2019-04-03T06:08:46.440Z,17.8
2019-04-03T06:09:34.173Z,17.8
2019-04-03T06:10:20.887Z,17.8
2019-04-03T06:11:22.154Z,17.8
2019-04-03T06:12:02.083Z,17.8
2019-04-03T06:12:55.794Z,17.8
2019-04-03T06:13:42.319Z,17.7
2019-04-03T06:14:33.900Z,17.7
2019-04-03T06:15:25.558Z,17.7
2019-04-03T06:16:12.613Z,17.7
2019-04-03T06:17:05.937Z,17.8
2019-04-03T06:17:59.432Z,17.9
2019-04-03T06:18:43.112Z,17.9
2019-04-03T06:19:38.966Z,18
2019-04-03T06:20:22.619Z,18.1
2019-04-03T06:21:15.952Z,18.2
2019-04-03T06:22:01.863Z,18.2
2019-04-03T06:22:56.817Z,18.3
2019-04-03T06:23:42.944Z,18.4
2019-04-03T06:24:35.734Z,18.5
2019-04-03T06:25:31.967Z,18.6
2019-04-03T06:26:13.803Z,18.8
2019-04-03T06:27:54.237Z,18.6
2019-04-03T06:28:50.087Z,18.6
2019-04-03T06:29:32.935Z,18.5
2019-04-03T06:30:26.512Z,18.5
2019-04-03T06:31:15.695Z,18.5
2019-04-03T06:32:09.208Z,18.5
2019-04-03T06:32:56.967Z,18.5
2019-04-03T06:33:45.664Z,18.5
2019-04-03T06:34:33.656Z,18.4
2019-04-03T06:35:24.936Z,18.4
2019-04-03T06:36:16.844Z,18.4
2019-04-03T06:37:03.715Z,18.4
2019-04-03T06:37:56.910Z,18.4
2019-04-03T06:38:42.599Z,18.4
2019-04-03T06:39:42.209Z,18.3
2019-04-03T06:40:24.289Z,18.3
2019-04-03T06:41:17.678Z,18.3
2019-04-03T06:42:04.325Z,18.3
2019-04-03T06:42:55.221Z,18.3
2019-04-03T06:43:44.643Z,18.3
2019-04-03T06:44:34.181Z,18.3
2019-04-03T06:45:29.261Z,18.3
2019-04-03T06:46:15.253Z,18.2
2019-04-03T06:47:10.123Z,18.2
2019-04-03T06:47:54.461Z,18.2
2019-04-03T06:48:46.233Z,18.1
2019-04-03T06:49:34.549Z,18.1
2019-04-03T06:50:28.448Z,18.1
2019-04-03T06:51:17.842Z,18.1
2019-04-03T06:52:04.959Z,18.1
2019-04-03T06:52:57.371Z,18.1
2019-04-03T06:53:44.253Z,18.1
2019-04-03T06:54:38.700Z,18
2019-04-03T06:55:28.525Z,18
2019-04-03T06:56:17.743Z,17.9
2019-04-03T06:57:04.986Z,17.9
2019-04-03T06:57:55.210Z,17.9
2019-04-03T06:58:54.372Z,17.9
2019-04-03T06:59:34.825Z,17.8
2019-04-03T07:00:25.076Z,17.8
2019-04-03T07:01:14.172Z,17.8
2019-04-03T07:02:04.718Z,17.8
2019-04-03T07:02:54.799Z,17.8
2019-04-03T07:05:21.370Z,17.7
2019-04-03T07:06:13.747Z,17.7
2019-04-03T07:07:04.802Z,17.7
2019-04-03T07:07:50.797Z,17.6
2019-04-03T07:08:49.690Z,17.6
2019-04-03T07:09:46.399Z,17.6
2019-04-03T07:10:40.724Z,17.8
2019-04-03T07:11:24.066Z,17.8
2019-04-03T07:12:03.380Z,17.9
2019-04-03T07:12:53.726Z,17.9
2019-04-03T07:13:42.043Z,18
2019-04-03T07:14:35.487Z,18.1
2019-04-03T07:15:26.328Z,18.1
2019-04-03T07:16:12.184Z,18.2
2019-04-03T07:17:10.169Z,18.3
2019-04-03T07:17:51.780Z,18.4
2019-04-03T07:18:45.457Z,18.4
2019-04-03T07:19:32.213Z,18.6
2019-04-03T07:20:30.805Z,18.5
2019-04-03T07:21:12.207Z,18.4
2019-04-03T07:22:05.985Z,18.4
2019-04-03T07:22:53.044Z,18.4
2019-04-03T07:23:42.831Z,18.4
2019-04-03T07:24:35.060Z,18.4
2019-04-03T07:25:23.091Z,18.4
2019-04-03T07:26:15.721Z,18.4
2019-04-03T07:27:02.780Z,18.4
2019-04-03T07:27:52.537Z,18.4
2019-04-03T07:28:47.263Z,18.4
2019-04-03T07:29:36.156Z,18.4
2019-04-03T07:30:30.482Z,18.4
2019-04-03T07:31:13.378Z,18.4
2019-04-03T07:32:06.189Z,18.4
2019-04-03T07:32:53.420Z,18.4
2019-04-03T07:33:44.206Z,18.4
2019-04-03T07:34:37.131Z,18.4
2019-04-03T07:35:22.942Z,18.4
2019-04-03T07:36:17.833Z,18.4
2019-04-03T07:37:02.514Z,18.4
2019-04-03T07:37:58.116Z,18.3
2019-04-03T07:38:43.850Z,18.3
2019-04-03T07:39:33.195Z,18.3
2019-04-03T07:40:26.803Z,18.3
2019-04-03T07:41:14.049Z,18.3
2019-04-03T07:42:04.816Z,18.3
2019-04-03T07:42:57.553Z,18.2
2019-04-03T07:43:43.832Z,18.2
2019-04-03T07:44:38.320Z,18.1
2019-04-03T07:45:23.312Z,18.1
2019-04-03T07:46:14.155Z,18.1
2019-04-03T07:47:09.379Z,18.1
2019-04-03T07:47:52.958Z,18.1
2019-04-03T07:48:47.577Z,18.1
2019-04-03T07:49:32.997Z,18
2019-04-03T07:50:24.940Z,18
2019-04-03T07:51:17.197Z,17.9
2019-04-03T07:52:04.041Z,17.9
2019-04-03T07:52:58.630Z,17.9
2019-04-03T07:53:44.477Z,17.9
2019-04-03T07:54:37.152Z,17.8
2019-04-03T07:55:30.523Z,17.8
2019-04-03T07:56:14.398Z,17.8
2019-04-03T07:57:11.242Z,17.8
2019-04-03T07:57:54.425Z,17.8
2019-04-03T07:58:45.596Z,17.8
2019-04-03T07:59:39.027Z,17.7
2019-04-03T08:00:26.066Z,17.7
2019-04-03T08:01:23.504Z,17.6
2019-04-03T08:02:05.346Z,17.6
2019-04-03T08:03:00.193Z,17.6
2019-04-03T08:03:46.293Z,17.7
2019-04-03T08:05:48.119Z,17.8
2019-04-03T08:06:08.755Z,17.9
2019-04-03T08:06:49.170Z,17.9
2019-04-03T08:07:39.817Z,18
2019-04-03T08:08:31.494Z,18.1
2019-04-03T08:09:21.453Z,18.2
2019-04-03T08:10:10.934Z,18.3
2019-04-03T08:11:05.181Z,18.3
2019-04-03T08:11:50.386Z,18.4
2019-04-03T08:12:46.108Z,18.5
2019-04-03T08:13:32.006Z,18.6
2019-04-03T08:14:24.659Z,18.4
2019-04-03T08:15:15.258Z,18.4
2019-04-03T08:16:01.762Z,18.4
2019-04-03T08:17:00.956Z,18.5
2019-04-03T08:17:41.574Z,18.5
2019-04-03T08:18:33.475Z,18.5
2019-04-03T08:19:25.461Z,18.5
2019-04-03T08:20:12.051Z,18.5
2019-04-03T08:21:09.966Z,18.6
2019-04-03T08:21:52.511Z,18.6
2019-04-03T08:22:45.960Z,18.6
2019-04-03T08:23:31.683Z,18.6
2019-04-03T08:24:21.953Z,18.5
2019-04-03T08:25:17.377Z,18.5
2019-04-03T08:26:04.411Z,18.4
2019-04-03T08:26:56.197Z,18.5
2019-04-03T08:27:42.430Z,18.4
2019-04-03T08:28:40.171Z,18.4
2019-04-03T08:29:23.008Z,18.4
2019-04-03T08:30:17.265Z,18.4
2019-04-03T08:31:02.165Z,18.4
2019-04-03T08:31:58.471Z,18.4
2019-04-03T08:32:44.068Z,18.4
2019-04-03T08:33:40.376Z,18.4
2019-04-03T08:34:32.143Z,18.3
2019-04-03T08:35:37.198Z,18.3
2019-04-03T08:36:08.707Z,18.3
2019-04-03T08:36:53.436Z,18.3
2019-04-03T08:37:48.987Z,18.2
2019-04-03T08:38:34.138Z,18.2
2019-04-03T08:39:28.381Z,18.1
2019-04-03T08:40:13.385Z,18.1
2019-04-03T08:41:08.258Z,18.1
2019-04-03T08:41:57.782Z,18.1
2019-04-03T08:42:44.133Z,18.1
2019-04-03T08:43:37.742Z,18.1
2019-04-03T08:44:22.550Z,18
2019-04-03T08:45:20.879Z,18
2019-04-03T08:46:03.057Z,18
2019-04-03T08:46:55.225Z,17.9
2019-04-03T08:47:51.224Z,17.9
2019-04-03T08:48:33.373Z,17.9
2019-04-03T08:49:27.265Z,17.9
2019-04-03T08:50:14.277Z,17.9
2019-04-03T08:51:10.851Z,17.8
2019-04-03T08:51:53.997Z,17.8
2019-04-03T08:52:49.391Z,17.8
2019-04-03T08:53:34.776Z,17.8
2019-04-03T08:54:24.938Z,17.8
2019-04-03T08:55:18.637Z,17.8
2019-04-03T08:56:06.768Z,17.8
2019-04-03T08:56:58.267Z,17.8
2019-04-03T08:57:53.003Z,17.8
2019-04-03T08:58:38.085Z,17.9
2019-04-03T08:59:26.757Z,17.9
2019-04-03T09:00:15.626Z,18
2019-04-03T09:01:12.605Z,18.1
2019-04-03T09:01:59.339Z,18.1
2019-04-03T09:02:49.610Z,18.2
2019-04-03T09:03:33.730Z,18.3
2019-04-03T09:04:28.817Z,18.4
2019-04-03T09:05:24.339Z,18.5
2019-04-03T09:06:06.994Z,18.6
2019-04-03T09:06:58.608Z,18.6
2019-04-03T09:07:46.305Z,18.4
2019-04-03T09:08:37.297Z,18.4
2019-04-03T09:09:23.652Z,18.4
2019-04-03T09:10:15.794Z,18.4
2019-04-03T09:11:09.343Z,18.4
2019-04-03T09:11:55.076Z,18.4
2019-04-03T09:12:48.429Z,18.4
2019-04-03T09:13:35.697Z,18.4
2019-04-03T09:14:32.006Z,18.4
2019-04-03T09:15:15.752Z,18.4
2019-04-03T09:16:13.233Z,18.4
2019-04-03T09:16:56.205Z,18.4
2019-04-03T09:17:46.332Z,18.4
2019-04-03T09:18:43.158Z,18.4
2019-04-03T09:19:27.093Z,18.4
2019-04-03T09:20:19.265Z,18.4
2019-04-03T09:21:06.552Z,18.4
2019-04-03T09:22:01.250Z,18.4
2019-04-03T09:22:46.035Z,18.4
2019-04-03T09:23:35.678Z,18.4
2019-04-03T09:24:31.514Z,18.4
2019-04-03T09:25:19.744Z,18.3
2019-04-03T09:26:09.540Z,18.3
2019-04-03T09:26:55.730Z,18.3
2019-04-03T09:27:50.042Z,18.3
2019-04-03T09:28:36.026Z,18.3
2019-04-03T09:29:24.705Z,18.3
2019-04-03T09:30:20.560Z,18.3
2019-04-03T09:31:06.739Z,18.3
2019-04-03T09:32:04.195Z,18.2
2019-04-03T09:32:47.637Z,18.2
2019-04-03T09:33:40.029Z,18.2
2019-04-03T09:34:38.137Z,18.1
2019-04-03T09:35:17.720Z,18.1
2019-04-03T09:36:14.546Z,18.1
2019-04-03T09:36:57.687Z,18.1
2019-04-03T09:37:52.744Z,18.1
2019-04-03T09:38:46.025Z,18.1
2019-04-03T09:39:27.260Z,18.1
2019-04-03T09:40:22.511Z,18
2019-04-03T09:41:08.054Z,18
2019-04-03T09:41:59.254Z,18
2019-04-03T09:42:46.089Z,17.9
2019-04-03T09:43:42.095Z,17.9
2019-04-03T09:44:31.136Z,17.9
2019-04-03T09:45:16.973Z,17.9
2019-04-03T09:46:11.320Z,17.9
2019-04-03T09:46:57.414Z,17.9
2019-04-03T09:47:47.271Z,17.8
2019-04-03T09:48:41.264Z,17.8
2019-04-03T09:49:29.288Z,17.8
2019-04-03T09:50:25.864Z,17.8
2019-04-03T09:51:11.682Z,17.8
2019-04-03T09:52:03.017Z,17.8
2019-04-03T09:53:07.715Z,17.9
2019-04-03T09:53:38.807Z,18
2019-04-03T09:54:33.318Z,18.1
2019-04-03T09:55:18.733Z,18.1
2019-04-03T09:56:13.646Z,18.2
2019-04-03T09:57:15.494Z,18.3
2019-04-03T09:57:52.111Z,18.4
2019-04-03T09:58:43.002Z,18.4
2019-04-03T09:59:29.781Z,18.6
2019-04-03T10:00:21.863Z,18.6
2019-04-03T10:01:08.415Z,18.6
2019-04-03T10:01:59.492Z,18.5
2019-04-03T10:02:53.605Z,18.4
2019-04-03T10:03:42.071Z,18.5
2019-04-03T10:06:39.506Z,18.6
2019-04-03T10:08:02.585Z,18.6
2019-04-03T10:08:51.933Z,18.6
2019-04-03T10:12:12.437Z,18.8
2019-04-03T10:15:36.425Z,18.6
2019-04-03T10:16:25.773Z,18.6
2019-04-03T10:17:17.792Z,18.6
2019-04-03T10:18:02.065Z,18.6
2019-04-03T10:18:54.069Z,18.6
2019-04-03T10:19:46.303Z,18.6
2019-04-03T10:20:32.394Z,18.6
2019-04-03T10:21:41.546Z,18.6
2019-04-03T10:22:12.945Z,18.5
2019-04-03T10:23:05.970Z,18.5
2019-04-03T10:23:51.527Z,18.5
2019-04-03T10:25:00.040Z,18.5
2019-04-03T10:25:32.832Z,18.4
2019-04-03T10:26:22.687Z,18.4
2019-04-03T10:27:16.772Z,18.4
2019-04-03T10:28:02.949Z,18.4
2019-04-03T10:28:58.164Z,18.3
2019-04-03T10:30:00.531Z,18.3
2019-04-03T10:30:33.953Z,18.3
2019-04-03T10:31:27.043Z,18.3
2019-04-03T10:32:13.700Z,18.2
2019-04-03T10:33:08.196Z,18.2
2019-04-03T10:33:53.554Z,18.1
2019-04-03T10:34:47.510Z,18.1
2019-04-03T10:35:52.676Z,18.1
2019-04-03T10:36:37.949Z,18.1
2019-04-03T10:37:18.042Z,18.1
2019-04-03T10:38:04.658Z,18.1
2019-04-03T10:39:09.091Z,18.1
2019-04-03T10:39:55.996Z,18
2019-04-03T10:40:35.626Z,18
2019-04-03T10:41:24.049Z,18
2019-04-03T10:42:15.113Z,17.9
2019-04-03T10:43:13.883Z,17.9
2019-04-03T10:43:55.143Z,17.9
2019-04-03T10:44:43.753Z,17.9
2019-04-03T10:45:33.654Z,17.9
2019-04-03T10:46:28.711Z,17.9
2019-04-03T10:47:14.441Z,17.9
2019-04-03T10:48:07.044Z,18
2019-04-03T10:48:54.400Z,18.1
2019-04-03T10:49:45.460Z,18.1
2019-04-03T10:50:39.284Z,18.3
2019-04-03T10:51:25.773Z,18.3
2019-04-03T10:52:18.518Z,18.4
2019-04-03T10:53:04.566Z,18.5
2019-04-03T10:53:59.819Z,18.6
2019-04-03T10:54:47.127Z,18.8
2019-04-03T10:55:39.078Z,18.8
2019-04-03T10:57:15.530Z,18.6
2019-04-03T10:58:15.047Z,18.6
2019-04-03T10:59:21.416Z,18.6
2019-04-03T11:00:38.777Z,18.8
2019-04-03T11:01:24.935Z,18.8
2019-04-03T11:02:15.309Z,18.8
2019-04-03T11:03:04.671Z,18.8
2019-04-03T11:03:55.195Z,18.9
2019-04-03T11:04:43.510Z,18.9
2019-04-03T11:05:36.182Z,18.9
2019-04-03T11:06:26.305Z,18.9
2019-04-03T11:07:14.539Z,18.9
2019-04-03T11:08:20.285Z,18.9
2019-04-03T11:08:55.869Z,18.8
2019-04-03T11:09:45.556Z,18.8
2019-04-03T11:10:36.391Z,18.8
2019-04-03T11:11:30.071Z,18.8
2019-04-03T11:15:36.793Z,18.6
2019-04-03T11:16:26.354Z,18.6
2019-04-03T11:17:34.115Z,18.6
2019-04-03T11:18:07.511Z,18.6
2019-04-03T11:19:31.163Z,18.6
2019-04-03T11:19:52.184Z,18.6
2019-04-03T11:20:44.333Z,18.6
2019-04-03T11:21:45.592Z,18.5
2019-04-03T11:24:47.507Z,18.5
2019-04-03T11:25:00.867Z,18.4
2019-04-03T11:25:58.715Z,18.4
2019-04-03T11:26:41.890Z,18.4
2019-04-03T11:27:57.746Z,18.4
2019-04-03T11:28:22.712Z,18.3
2019-04-03T11:29:16.067Z,18.3
2019-04-03T11:30:26.921Z,18.3
2019-04-03T11:31:02.608Z,18.3
2019-04-03T11:31:53.362Z,18.3
2019-04-03T11:32:34.052Z,18.3
2019-04-03T11:33:24.391Z,18.3
2019-04-03T11:34:11.498Z,18.2
2019-04-03T11:35:04.291Z,18.2
2019-04-03T11:35:55.798Z,18.1
2019-04-03T11:36:40.878Z,18.1
2019-04-03T11:37:36.233Z,18.1